Flint Hill TT Course (HCC/012)

Reading, Oxfordshire, United Kingdom
  • Distance
    2.7 km
  • Elevation
    101 m
  • Grade
    4%

Overall Leaderboard

Speed Power
VAM
Time
Pro
Tom P.
1 Tom Pidcock 35.6km/h - 1,327.7 4:35
1 Dan T. 35.6km/h 367 1,327.7 4:35
3 Mason H. 34.6km/h 277 1,290.1 4:43
4 Jacques Sauvagnargues 34.4km/h 440 1,281.1 4:45
5 Harry Hardcastle 34.3km/h 383 1,276.6 4:46
6 Oscar M. 34.1km/h 333 1,272.2 4:47
6 Marco Passfield 34.1km/h 343 1,272.2 4:47
8 Andrew Feather 34.0km/h 421 1,267.7 4:48
8 Tom D. 34.0km/h 436 1,267.7 4:48
10 Lee F. 33.9km/h 388 1,263.4 4:49

Women's Leaderboard

Speed Power
VAM
Time
Maryka S. 1 Maryka S. 29.2km/h 287 1,086.6 5:36
2 Anna Kay 26.6km/h - 989.5 6:09
2 Alana P. 26.6km/h 248 989.5 6:09
2 Emily T. 26.6km/h 264 989.5 6:09
5 Hannah B. 26.5km/h 246 986.8 6:10
6 Maddie Gammons 26.4km/h 203 984.1 6:11
6 Bithja Jones 26.4km/h 271 984.1 6:11
8 Emily W. 26.3km/h 256 981.5 6:12
8 Lucy H. 26.3km/h 227 981.5 6:12
8 Lorna B. 26.3km/h 243 981.5 6:12